sensor_id;sensor_type;location;lat;lon;timestamp;P1;durP1;ratioP1;P2;durP2;ratioP2
3991;SDS011;2010;48.194;16.394;2023-02-13T00:01:19;17.20;;;12.13;;
3991;SDS011;2010;48.194;16.394;2023-02-13T00:03:49;17.43;;;11.67;;
3991;SDS011;2010;48.194;16.394;2023-02-13T00:06:19;17.53;;;13.13;;
3991;SDS011;2010;48.194;16.394;2023-02-13T00:08:52;19.33;;;12.40;;
3991;SDS011;2010;48.194;16.394;2023-02-13T00:11:22;24.77;;;13.00;;
3991;SDS011;2010;48.194;16.394;2023-02-13T00:13:52;21.40;;;13.33;;
3991;SDS011;2010;48.194;16.394;2023-02-13T00:16:24;17.63;;;11.73;;
3991;SDS011;2010;48.194;16.394;2023-02-13T00:18:53;18.73;;;11.27;;
3991;SDS011;2010;48.194;16.394;2023-02-13T00:21:34;21.83;;;11.50;;
3991;SDS011;2010;48.194;16.394;2023-02-13T00:24:09;18.67;;;11.97;;
3991;SDS011;2010;48.194;16.394;2023-02-13T00:26:48;16.77;;;11.67;;
3991;SDS011;2010;48.194;16.394;2023-02-13T00:29:28;18.53;;;11.80;;
3991;SDS011;2010;48.194;16.394;2023-02-13T00:32:10;19.97;;;11.33;;
3991;SDS011;2010;48.194;16.394;2023-02-13T00:34:40;15.10;;;10.63;;
3991;SDS011;2010;48.194;16.394;2023-02-13T00:37:12;19.40;;;11.20;;
3991;SDS011;2010;48.194;16.394;2023-02-13T00:39:41;24.73;;;11.33;;
3991;SDS011;2010;48.194;16.394;2023-02-13T00:42:13;20.80;;;10.33;;
3991;SDS011;2010;48.194;16.394;2023-02-13T00:44:57;18.80;;;11.67;;
3991;SDS011;2010;48.194;16.394;2023-02-13T00:47:30;18.30;;;11.67;;
3991;SDS011;2010;48.194;16.394;2023-02-13T00:50:00;17.73;;;11.10;;
3991;SDS011;2010;48.194;16.394;2023-02-13T00:52:35;25.77;;;13.77;;
3991;SDS011;2010;48.194;16.394;2023-02-13T00:55:06;23.17;;;14.40;;
3991;SDS011;2010;48.194;16.394;2023-02-13T00:57:35;29.43;;;17.00;;
3991;SDS011;2010;48.194;16.394;2023-02-13T01:00:08;26.07;;;17.03;;
3991;SDS011;2010;48.194;16.394;2023-02-13T01:02:44;28.17;;;17.53;;
3991;SDS011;2010;48.194;16.394;2023-02-13T01:05:17;21.47;;;15.80;;
3991;SDS011;2010;48.194;16.394;2023-02-13T01:07:47;30.67;;;17.43;;
3991;SDS011;2010;48.194;16.394;2023-02-13T01:10:19;27.50;;;16.47;;
3991;SDS011;2010;48.194;16.394;2023-02-13T01:12:53;29.73;;;17.13;;
3991;SDS011;2010;48.194;16.394;2023-02-13T01:15:27;28.30;;;16.77;;
3991;SDS011;2010;48.194;16.394;2023-02-13T01:18:06;23.27;;;16.07;;
3991;SDS011;2010;48.194;16.394;2023-02-13T01:20:43;25.57;;;16.40;;
3991;SDS011;2010;48.194;16.394;2023-02-13T01:23:13;25.43;;;16.83;;
3991;SDS011;2010;48.194;16.394;2023-02-13T01:25:45;28.07;;;16.67;;
3991;SDS011;2010;48.194;16.394;2023-02-13T01:28:13;26.57;;;17.80;;
3991;SDS011;2010;48.194;16.394;2023-02-13T01:30:51;24.10;;;17.10;;
3991;SDS011;2010;48.194;16.394;2023-02-13T01:33:40;30.17;;;18.27;;
3991;SDS011;2010;48.194;16.394;2023-02-13T01:36:12;26.50;;;17.10;;
3991;SDS011;2010;48.194;16.394;2023-02-13T01:38:52;31.17;;;20.47;;
3991;SDS011;2010;48.194;16.394;2023-02-13T01:41:25;31.77;;;20.20;;
3991;SDS011;2010;48.194;16.394;2023-02-13T01:47:16;31.27;;;19.77;;
3991;SDS011;2010;48.194;16.394;2023-02-13T01:50:01;31.33;;;21.50;;
3991;SDS011;2010;48.194;16.394;2023-02-13T01:52:34;43.23;;;29.33;;
3991;SDS011;2010;48.194;16.394;2023-02-13T01:55:04;48.70;;;34.87;;
3991;SDS011;2010;48.194;16.394;2023-02-13T01:57:42;36.53;;;25.27;;
3991;SDS011;2010;48.194;16.394;2023-02-13T02:00:16;35.13;;;27.40;;
3991;SDS011;2010;48.194;16.394;2023-02-13T02:02:59;29.17;;;19.70;;
3991;SDS011;2010;48.194;16.394;2023-02-13T02:05:37;24.27;;;17.57;;
3991;SDS011;2010;48.194;16.394;2023-02-13T02:08:09;28.00;;;17.97;;
3991;SDS011;2010;48.194;16.394;2023-02-13T02:10:43;26.50;;;17.13;;
3991;SDS011;2010;48.194;16.394;2023-02-13T02:13:14;29.20;;;18.77;;
3991;SDS011;2010;48.194;16.394;2023-02-13T02:15:47;28.20;;;17.03;;
3991;SDS011;2010;48.194;16.394;2023-02-13T02:18:28;28.10;;;18.37;;
3991;SDS011;2010;48.194;16.394;2023-02-13T02:21:14;29.03;;;16.87;;
3991;SDS011;2010;48.194;16.394;2023-02-13T02:27:15;27.03;;;16.80;;
3991;SDS011;2010;48.194;16.394;2023-02-13T02:30:01;28.07;;;16.17;;
3991;SDS011;2010;48.194;16.394;2023-02-13T02:33:05;29.77;;;17.40;;
3991;SDS011;2010;48.194;16.394;2023-02-13T02:35:45;25.90;;;16.33;;
3991;SDS011;2010;48.194;16.394;2023-02-13T02:38:23;25.17;;;17.00;;
3991;SDS011;2010;48.194;16.394;2023-02-13T02:40:58;31.27;;;18.47;;
3991;SDS011;2010;48.194;16.394;2023-02-13T02:43:43;31.10;;;18.37;;
3991;SDS011;2010;48.194;16.394;2023-02-13T02:46:21;29.30;;;16.83;;
3991;SDS011;2010;48.194;16.394;2023-02-13T02:49:03;25.97;;;16.87;;
3991;SDS011;2010;48.194;16.394;2023-02-13T02:51:54;22.87;;;16.67;;
3991;SDS011;2010;48.194;16.394;2023-02-13T02:54:31;23.07;;;17.27;;
3991;SDS011;2010;48.194;16.394;2023-02-13T02:57:22;28.27;;;21.43;;
3991;SDS011;2010;48.194;16.394;2023-02-13T03:00:19;27.57;;;19.90;;
3991;SDS011;2010;48.194;16.394;2023-02-13T03:03:16;28.70;;;18.47;;
3991;SDS011;2010;48.194;16.394;2023-02-13T03:06:08;29.17;;;18.60;;
3991;SDS011;2010;48.194;16.394;2023-02-13T03:08:42;30.50;;;18.80;;
3991;SDS011;2010;48.194;16.394;2023-02-13T03:11:36;30.43;;;17.33;;
3991;SDS011;2010;48.194;16.394;2023-02-13T03:14:24;30.03;;;18.00;;
3991;SDS011;2010;48.194;16.394;2023-02-13T03:16:59;29.23;;;17.33;;
3991;SDS011;2010;48.194;16.394;2023-02-13T03:25:59;29.20;;;18.17;;
3991;SDS011;2010;48.194;16.394;2023-02-13T03:28:46;26.63;;;18.03;;
3991;SDS011;2010;48.194;16.394;2023-02-13T03:31:38;28.20;;;16.90;;
3991;SDS011;2010;48.194;16.394;2023-02-13T03:34:13;33.00;;;16.67;;
3991;SDS011;2010;48.194;16.394;2023-02-13T03:36:46;29.27;;;17.90;;
3991;SDS011;2010;48.194;16.394;2023-02-13T03:39:45;24.80;;;16.20;;
3991;SDS011;2010;48.194;16.394;2023-02-13T03:42:20;31.30;;;18.47;;
3991;SDS011;2010;48.194;16.394;2023-02-13T03:44:57;26.67;;;16.03;;
3991;SDS011;2010;48.194;16.394;2023-02-13T03:47:49;24.37;;;16.13;;
3991;SDS011;2010;48.194;16.394;2023-02-13T03:50:20;26.37;;;16.33;;
3991;SDS011;2010;48.194;16.394;2023-02-13T03:52:52;22.40;;;14.50;;
3991;SDS011;2010;48.194;16.394;2023-02-13T03:55:29;22.77;;;13.50;;
3991;SDS011;2010;48.194;16.394;2023-02-13T03:58:18;24.87;;;15.70;;
3991;SDS011;2010;48.194;16.394;2023-02-13T04:01:09;22.43;;;14.50;;
3991;SDS011;2010;48.194;16.394;2023-02-13T04:03:44;20.63;;;13.90;;
3991;SDS011;2010;48.194;16.394;2023-02-13T04:06:19;20.83;;;14.10;;
3991;SDS011;2010;48.194;16.394;2023-02-13T04:09:01;21.80;;;13.97;;
3991;SDS011;2010;48.194;16.394;2023-02-13T04:11:34;23.93;;;14.87;;
3991;SDS011;2010;48.194;16.394;2023-02-13T04:14:09;23.70;;;14.70;;
3991;SDS011;2010;48.194;16.394;2023-02-13T04:16:55;22.63;;;14.80;;
3991;SDS011;2010;48.194;16.394;2023-02-13T04:19:26;22.00;;;14.30;;
3991;SDS011;2010;48.194;16.394;2023-02-13T04:21:56;21.50;;;14.80;;
3991;SDS011;2010;48.194;16.394;2023-02-13T04:24:27;20.67;;;14.20;;
3991;SDS011;2010;48.194;16.394;2023-02-13T04:27:01;25.30;;;14.40;;
3991;SDS011;2010;48.194;16.394;2023-02-13T04:29:29;24.63;;;15.13;;
3991;SDS011;2010;48.194;16.394;2023-02-13T04:32:03;24.97;;;14.83;;
3991;SDS011;2010;48.194;16.394;2023-02-13T04:34:33;21.57;;;14.50;;
3991;SDS011;2010;48.194;16.394;2023-02-13T04:37:03;21.40;;;13.90;;
3991;SDS011;2010;48.194;16.394;2023-02-13T04:39:39;23.40;;;14.20;;
3991;SDS011;2010;48.194;16.394;2023-02-13T04:42:23;20.50;;;13.53;;
3991;SDS011;2010;48.194;16.394;2023-02-13T04:44:57;20.13;;;14.37;;
3991;SDS011;2010;48.194;16.394;2023-02-13T04:47:27;22.00;;;13.90;;
3991;SDS011;2010;48.194;16.394;2023-02-13T04:49:57;24.00;;;13.10;;
3991;SDS011;2010;48.194;16.394;2023-02-13T04:52:29;22.50;;;14.20;;
3991;SDS011;2010;48.194;16.394;2023-02-13T04:55:00;23.13;;;13.70;;
3991;SDS011;2010;48.194;16.394;2023-02-13T04:57:37;31.33;;;14.03;;
3991;SDS011;2010;48.194;16.394;2023-02-13T05:00:09;19.43;;;14.33;;
3991;SDS011;2010;48.194;16.394;2023-02-13T05:02:45;19.57;;;13.73;;
3991;SDS011;2010;48.194;16.394;2023-02-13T05:05:15;21.43;;;13.47;;
3991;SDS011;2010;48.194;16.394;2023-02-13T05:07:45;19.83;;;12.63;;
3991;SDS011;2010;48.194;16.394;2023-02-13T05:10:14;24.93;;;14.10;;
3991;SDS011;2010;48.194;16.394;2023-02-13T05:12:49;23.10;;;13.27;;
3991;SDS011;2010;48.194;16.394;2023-02-13T05:15:17;19.17;;;13.57;;
3991;SDS011;2010;48.194;16.394;2023-02-13T05:17:47;25.27;;;13.30;;
3991;SDS011;2010;48.194;16.394;2023-02-13T05:20:17;19.30;;;13.10;;
3991;SDS011;2010;48.194;16.394;2023-02-13T05:22:56;20.20;;;13.03;;
3991;SDS011;2010;48.194;16.394;2023-02-13T05:25:44;20.03;;;12.03;;
3991;SDS011;2010;48.194;16.394;2023-02-13T05:28:30;21.00;;;12.33;;
3991;SDS011;2010;48.194;16.394;2023-02-13T05:31:18;21.77;;;13.10;;
3991;SDS011;2010;48.194;16.394;2023-02-13T05:33:50;19.90;;;12.07;;
3991;SDS011;2010;48.194;16.394;2023-02-13T05:36:19;17.77;;;11.83;;
3991;SDS011;2010;48.194;16.394;2023-02-13T05:38:48;17.93;;;11.50;;
3991;SDS011;2010;48.194;16.394;2023-02-13T05:41:19;19.20;;;12.43;;
3991;SDS011;2010;48.194;16.394;2023-02-13T05:44:03;17.10;;;12.00;;
3991;SDS011;2010;48.194;16.394;2023-02-13T05:46:35;18.80;;;11.30;;
3991;SDS011;2010;48.194;16.394;2023-02-13T05:49:14;16.43;;;12.03;;
3991;SDS011;2010;48.194;16.394;2023-02-13T05:51:53;19.83;;;11.60;;
3991;SDS011;2010;48.194;16.394;2023-02-13T05:54:23;18.87;;;12.33;;
3991;SDS011;2010;48.194;16.394;2023-02-13T05:56:51;23.63;;;12.57;;
3991;SDS011;2010;48.194;16.394;2023-02-13T05:59:34;19.03;;;11.13;;
3991;SDS011;2010;48.194;16.394;2023-02-13T06:02:05;23.53;;;12.67;;
3991;SDS011;2010;48.194;16.394;2023-02-13T06:04:35;20.10;;;12.63;;
3991;SDS011;2010;48.194;16.394;2023-02-13T06:07:14;17.60;;;11.40;;
3991;SDS011;2010;48.194;16.394;2023-02-13T06:09:50;19.70;;;12.07;;
3991;SDS011;2010;48.194;16.394;2023-02-13T06:12:20;18.30;;;11.73;;
3991;SDS011;2010;48.194;16.394;2023-02-13T06:15:04;16.23;;;11.33;;
3991;SDS011;2010;48.194;16.394;2023-02-13T06:17:39;14.87;;;8.97;;
3991;SDS011;2010;48.194;16.394;2023-02-13T06:20:10;17.40;;;8.40;;
3991;SDS011;2010;48.194;16.394;2023-02-13T06:22:39;11.23;;;7.67;;
3991;SDS011;2010;48.194;16.394;2023-02-13T06:25:09;10.30;;;7.27;;
3991;SDS011;2010;48.194;16.394;2023-02-13T06:27:46;17.50;;;8.63;;
3991;SDS011;2010;48.194;16.394;2023-02-13T06:30:16;9.53;;;7.17;;
3991;SDS011;2010;48.194;16.394;2023-02-13T06:32:46;12.70;;;6.20;;
3991;SDS011;2010;48.194;16.394;2023-02-13T06:35:16;11.80;;;6.90;;
3991;SDS011;2010;48.194;16.394;2023-02-13T06:37:47;12.40;;;7.40;;
3991;SDS011;2010;48.194;16.394;2023-02-13T06:40:16;9.43;;;7.00;;
3991;SDS011;2010;48.194;16.394;2023-02-13T06:42:47;11.57;;;6.93;;
3991;SDS011;2010;48.194;16.394;2023-02-13T06:45:23;12.53;;;6.40;;
3991;SDS011;2010;48.194;16.394;2023-02-13T06:47:57;13.93;;;7.80;;
3991;SDS011;2010;48.194;16.394;2023-02-13T06:50:31;9.83;;;6.57;;
3991;SDS011;2010;48.194;16.394;2023-02-13T06:53:02;11.07;;;7.10;;
3991;SDS011;2010;48.194;16.394;2023-02-13T06:55:32;12.70;;;7.30;;
3991;SDS011;2010;48.194;16.394;2023-02-13T06:58:01;9.90;;;7.00;;
3991;SDS011;2010;48.194;16.394;2023-02-13T07:00:32;13.40;;;7.40;;
3991;SDS011;2010;48.194;16.394;2023-02-13T07:03:04;10.87;;;7.10;;
3991;SDS011;2010;48.194;16.394;2023-02-13T07:05:34;15.43;;;7.40;;
3991;SDS011;2010;48.194;16.394;2023-02-13T07:08:05;11.13;;;7.53;;
3991;SDS011;2010;48.194;16.394;2023-02-13T07:10:36;15.60;;;7.73;;
3991;SDS011;2010;48.194;16.394;2023-02-13T07:13:05;12.97;;;7.90;;
3991;SDS011;2010;48.194;16.394;2023-02-13T07:15:52;10.80;;;6.80;;
3991;SDS011;2010;48.194;16.394;2023-02-13T07:18:27;13.97;;;7.90;;
3991;SDS011;2010;48.194;16.394;2023-02-13T07:20:59;12.80;;;8.20;;
3991;SDS011;2010;48.194;16.394;2023-02-13T07:23:30;11.30;;;8.17;;
3991;SDS011;2010;48.194;16.394;2023-02-13T07:25:59;14.37;;;8.53;;
3991;SDS011;2010;48.194;16.394;2023-02-13T07:28:40;12.70;;;7.60;;
3991;SDS011;2010;48.194;16.394;2023-02-13T07:31:14;9.23;;;7.30;;
3991;SDS011;2010;48.194;16.394;2023-02-13T07:33:47;10.00;;;7.53;;
3991;SDS011;2010;48.194;16.394;2023-02-13T07:36:19;11.23;;;7.70;;
3991;SDS011;2010;48.194;16.394;2023-02-13T07:38:56;12.57;;;8.73;;
3991;SDS011;2010;48.194;16.394;2023-02-13T07:41:25;15.90;;;8.50;;
3991;SDS011;2010;48.194;16.394;2023-02-13T07:43:57;15.37;;;7.27;;
3991;SDS011;2010;48.194;16.394;2023-02-13T07:46:31;11.83;;;7.87;;
3991;SDS011;2010;48.194;16.394;2023-02-13T07:49:00;8.23;;;6.90;;
3991;SDS011;2010;48.194;16.394;2023-02-13T07:51:31;18.30;;;8.33;;
3991;SDS011;2010;48.194;16.394;2023-02-13T07:54:00;9.13;;;7.40;;
3991;SDS011;2010;48.194;16.394;2023-02-13T07:56:29;19.30;;;7.23;;
3991;SDS011;2010;48.194;16.394;2023-02-13T07:59:01;13.90;;;7.90;;
3991;SDS011;2010;48.194;16.394;2023-02-13T08:01:36;15.07;;;7.23;;
3991;SDS011;2010;48.194;16.394;2023-02-13T08:04:12;13.57;;;9.60;;
3991;SDS011;2010;48.194;16.394;2023-02-13T08:06:43;12.03;;;8.77;;
3991;SDS011;2010;48.194;16.394;2023-02-13T08:09:24;19.80;;;8.43;;
3991;SDS011;2010;48.194;16.394;2023-02-13T08:12:12;12.67;;;8.23;;
3991;SDS011;2010;48.194;16.394;2023-02-13T08:14:48;15.93;;;7.30;;
3991;SDS011;2010;48.194;16.394;2023-02-13T08:17:22;17.40;;;7.57;;
3991;SDS011;2010;48.194;16.394;2023-02-13T08:19:56;9.70;;;6.67;;
3991;SDS011;2010;48.194;16.394;2023-02-13T08:22:27;8.37;;;6.77;;
3991;SDS011;2010;48.194;16.394;2023-02-13T08:24:55;9.90;;;6.70;;
3991;SDS011;2010;48.194;16.394;2023-02-13T08:27:24;10.17;;;7.57;;
3991;SDS011;2010;48.194;16.394;2023-02-13T08:29:57;9.67;;;7.97;;
3991;SDS011;2010;48.194;16.394;2023-02-13T08:32:29;12.90;;;8.27;;
3991;SDS011;2010;48.194;16.394;2023-02-13T08:35:18;9.23;;;7.40;;
3991;SDS011;2010;48.194;16.394;2023-02-13T08:38:00;11.20;;;8.30;;
3991;SDS011;2010;48.194;16.394;2023-02-13T08:40:32;9.47;;;7.53;;
3991;SDS011;2010;48.194;16.394;2023-02-13T08:43:02;10.30;;;7.60;;
3991;SDS011;2010;48.194;16.394;2023-02-13T08:45:43;12.87;;;7.80;;
3991;SDS011;2010;48.194;16.394;2023-02-13T08:48:16;12.37;;;8.63;;
3991;SDS011;2010;48.194;16.394;2023-02-13T08:50:47;11.93;;;7.93;;
3991;SDS011;2010;48.194;16.394;2023-02-13T08:53:16;10.50;;;7.90;;
3991;SDS011;2010;48.194;16.394;2023-02-13T08:55:59;9.37;;;7.77;;
3991;SDS011;2010;48.194;16.394;2023-02-13T08:58:34;12.80;;;9.10;;
3991;SDS011;2010;48.194;16.394;2023-02-13T09:01:06;13.03;;;7.80;;
3991;SDS011;2010;48.194;16.394;2023-02-13T09:03:39;15.83;;;8.07;;
3991;SDS011;2010;48.194;16.394;2023-02-13T09:06:11;15.93;;;8.60;;
3991;SDS011;2010;48.194;16.394;2023-02-13T09:08:40;14.80;;;8.57;;
3991;SDS011;2010;48.194;16.394;2023-02-13T09:11:15;8.17;;;7.27;;
3991;SDS011;2010;48.194;16.394;2023-02-13T09:13:51;14.60;;;8.83;;
3991;SDS011;2010;48.194;16.394;2023-02-13T09:16:21;12.80;;;8.50;;
3991;SDS011;2010;48.194;16.394;2023-02-13T09:18:54;14.23;;;9.27;;
3991;SDS011;2010;48.194;16.394;2023-02-13T09:21:28;13.50;;;8.70;;
3991;SDS011;2010;48.194;16.394;2023-02-13T09:24:00;13.77;;;7.50;;
3991;SDS011;2010;48.194;16.394;2023-02-13T09:26:34;10.40;;;7.83;;
3991;SDS011;2010;48.194;16.394;2023-02-13T09:29:03;15.07;;;8.33;;
3991;SDS011;2010;48.194;16.394;2023-02-13T09:31:32;10.50;;;7.53;;
3991;SDS011;2010;48.194;16.394;2023-02-13T09:34:07;9.30;;;7.33;;
3991;SDS011;2010;48.194;16.394;2023-02-13T09:36:38;8.23;;;6.60;;
3991;SDS011;2010;48.194;16.394;2023-02-13T09:39:07;6.70;;;5.93;;
3991;SDS011;2010;48.194;16.394;2023-02-13T09:41:38;6.33;;;5.37;;
3991;SDS011;2010;48.194;16.394;2023-02-13T09:44:10;10.90;;;5.93;;
3991;SDS011;2010;48.194;16.394;2023-02-13T09:47:02;6.97;;;6.27;;
3991;SDS011;2010;48.194;16.394;2023-02-13T09:49:38;12.13;;;6.97;;
3991;SDS011;2010;48.194;16.394;2023-02-13T09:52:16;11.60;;;7.40;;
3991;SDS011;2010;48.194;16.394;2023-02-13T09:54:49;14.87;;;7.03;;
3991;SDS011;2010;48.194;16.394;2023-02-13T09:57:24;12.03;;;6.57;;
3991;SDS011;2010;48.194;16.394;2023-02-13T10:00:02;9.70;;;5.80;;
3991;SDS011;2010;48.194;16.394;2023-02-13T10:05:54;9.13;;;6.67;;
3991;SDS011;2010;48.194;16.394;2023-02-13T10:08:42;9.97;;;6.47;;
3991;SDS011;2010;48.194;16.394;2023-02-13T10:14:26;19.37;;;7.63;;
3991;SDS011;2010;48.194;16.394;2023-02-13T10:17:10;10.23;;;7.10;;
3991;SDS011;2010;48.194;16.394;2023-02-13T10:19:44;11.63;;;7.23;;
3991;SDS011;2010;48.194;16.394;2023-02-13T10:22:17;8.50;;;6.73;;
3991;SDS011;2010;48.194;16.394;2023-02-13T10:24:49;9.10;;;5.50;;
3991;SDS011;2010;48.194;16.394;2023-02-13T10:27:24;6.90;;;5.73;;
3991;SDS011;2010;48.194;16.394;2023-02-13T10:29:56;8.50;;;6.10;;
3991;SDS011;2010;48.194;16.394;2023-02-13T10:32:40;5.50;;;3.93;;
3991;SDS011;2010;48.194;16.394;2023-02-13T10:35:17;6.20;;;4.50;;
3991;SDS011;2010;48.194;16.394;2023-02-13T10:37:58;15.07;;;5.30;;
3991;SDS011;2010;48.194;16.394;2023-02-13T10:40:36;14.13;;;6.53;;
3991;SDS011;2010;48.194;16.394;2023-02-13T10:43:10;8.23;;;5.60;;
3991;SDS011;2010;48.194;16.394;2023-02-13T10:46:00;8.00;;;5.67;;
3991;SDS011;2010;48.194;16.394;2023-02-13T10:49:05;10.23;;;6.47;;
3991;SDS011;2010;48.194;16.394;2023-02-13T10:51:47;12.00;;;5.90;;
3991;SDS011;2010;48.194;16.394;2023-02-13T10:54:33;7.50;;;6.70;;
3991;SDS011;2010;48.194;16.394;2023-02-13T10:57:15;11.13;;;6.50;;
3991;SDS011;2010;48.194;16.394;2023-02-13T10:59:59;12.07;;;8.23;;
3991;SDS011;2010;48.194;16.394;2023-02-13T11:02:35;14.00;;;8.73;;
3991;SDS011;2010;48.194;16.394;2023-02-13T11:05:13;17.77;;;8.63;;
3991;SDS011;2010;48.194;16.394;2023-02-13T11:07:50;15.27;;;9.20;;
3991;SDS011;2010;48.194;16.394;2023-02-13T11:10:24;12.90;;;8.53;;
3991;SDS011;2010;48.194;16.394;2023-02-13T11:12:56;15.03;;;7.40;;
3991;SDS011;2010;48.194;16.394;2023-02-13T11:15:36;15.00;;;9.50;;
3991;SDS011;2010;48.194;16.394;2023-02-13T11:18:10;12.50;;;8.23;;
3991;SDS011;2010;48.194;16.394;2023-02-13T11:20:45;14.77;;;9.37;;
3991;SDS011;2010;48.194;16.394;2023-02-13T11:23:17;12.97;;;8.10;;
3991;SDS011;2010;48.194;16.394;2023-02-13T11:26:20;15.53;;;8.40;;
3991;SDS011;2010;48.194;16.394;2023-02-13T11:28:53;15.63;;;8.00;;
3991;SDS011;2010;48.194;16.394;2023-02-13T11:31:25;14.70;;;8.77;;
3991;SDS011;2010;48.194;16.394;2023-02-13T11:33:58;11.37;;;8.03;;
3991;SDS011;2010;48.194;16.394;2023-02-13T11:36:52;11.37;;;8.67;;
3991;SDS011;2010;48.194;16.394;2023-02-13T11:39:21;10.40;;;7.50;;
3991;SDS011;2010;48.194;16.394;2023-02-13T11:42:03;14.27;;;8.67;;
3991;SDS011;2010;48.194;16.394;2023-02-13T11:44:43;12.07;;;7.53;;
3991;SDS011;2010;48.194;16.394;2023-02-13T11:47:20;8.57;;;7.00;;
3991;SDS011;2010;48.194;16.394;2023-02-13T11:50:19;9.70;;;6.33;;
3991;SDS011;2010;48.194;16.394;2023-02-13T11:52:54;13.87;;;6.57;;
3991;SDS011;2010;48.194;16.394;2023-02-13T11:55:28;6.63;;;5.87;;
3991;SDS011;2010;48.194;16.394;2023-02-13T11:58:23;7.40;;;5.60;;
3991;SDS011;2010;48.194;16.394;2023-02-13T12:01:09;10.30;;;6.57;;
3991;SDS011;2010;48.194;16.394;2023-02-13T12:04:05;13.70;;;7.30;;
3991;SDS011;2010;48.194;16.394;2023-02-13T12:06:57;11.53;;;7.30;;
3991;SDS011;2010;48.194;16.394;2023-02-13T12:09:31;10.90;;;7.80;;
3991;SDS011;2010;48.194;16.394;2023-02-13T12:12:01;9.63;;;7.93;;
3991;SDS011;2010;48.194;16.394;2023-02-13T12:14:41;9.53;;;6.20;;
3991;SDS011;2010;48.194;16.394;2023-02-13T12:17:11;10.13;;;6.57;;
3991;SDS011;2010;48.194;16.394;2023-02-13T12:19:58;11.10;;;5.77;;
3991;SDS011;2010;48.194;16.394;2023-02-13T12:22:37;9.20;;;5.70;;
3991;SDS011;2010;48.194;16.394;2023-02-13T12:25:18;11.50;;;6.93;;
3991;SDS011;2010;48.194;16.394;2023-02-13T12:28:05;10.00;;;7.20;;
3991;SDS011;2010;48.194;16.394;2023-02-13T12:30:44;9.13;;;6.10;;
3991;SDS011;2010;48.194;16.394;2023-02-13T12:37:19;8.60;;;5.70;;
3991;SDS011;2010;48.194;16.394;2023-02-13T12:40:03;8.27;;;5.67;;
3991;SDS011;2010;48.194;16.394;2023-02-13T12:42:43;10.70;;;6.60;;
3991;SDS011;2010;48.194;16.394;2023-02-13T12:45:26;10.87;;;6.93;;
3991;SDS011;2010;48.194;16.394;2023-02-13T12:48:13;8.20;;;6.50;;
3991;SDS011;2010;48.194;16.394;2023-02-13T12:51:03;7.40;;;6.50;;
3991;SDS011;2010;48.194;16.394;2023-02-13T12:53:57;7.60;;;5.70;;
3991;SDS011;2010;48.194;16.394;2023-02-13T12:57:33;7.37;;;5.43;;
3991;SDS011;2010;48.194;16.394;2023-02-13T13:00:18;8.30;;;6.53;;
3991;SDS011;2010;48.194;16.394;2023-02-13T13:06:07;6.33;;;5.73;;
3991;SDS011;2010;48.194;16.394;2023-02-13T13:12:00;7.53;;;5.53;;
3991;SDS011;2010;48.194;16.394;2023-02-13T13:14:39;7.03;;;6.30;;
3991;SDS011;2010;48.194;16.394;2023-02-13T13:17:15;8.03;;;6.40;;
3991;SDS011;2010;48.194;16.394;2023-02-13T13:19:55;10.03;;;7.60;;
3991;SDS011;2010;48.194;16.394;2023-02-13T13:22:32;8.57;;;6.30;;
3991;SDS011;2010;48.194;16.394;2023-02-13T13:25:10;6.27;;;5.63;;
3991;SDS011;2010;48.194;16.394;2023-02-13T13:27:54;5.47;;;4.97;;
3991;SDS011;2010;48.194;16.394;2023-02-13T13:30:28;6.33;;;5.70;;
3991;SDS011;2010;48.194;16.394;2023-02-13T13:33:03;6.47;;;5.83;;
3991;SDS011;2010;48.194;16.394;2023-02-13T13:35:42;8.83;;;6.20;;
3991;SDS011;2010;48.194;16.394;2023-02-13T13:38:14;6.23;;;5.63;;
3991;SDS011;2010;48.194;16.394;2023-02-13T13:40:52;7.20;;;5.90;;
3991;SDS011;2010;48.194;16.394;2023-02-13T13:43:29;8.33;;;4.97;;
3991;SDS011;2010;48.194;16.394;2023-02-13T13:46:16;6.97;;;5.10;;
3991;SDS011;2010;48.194;16.394;2023-02-13T13:49:05;8.03;;;5.40;;
3991;SDS011;2010;48.194;16.394;2023-02-13T13:51:49;17.97;;;11.27;;
3991;SDS011;2010;48.194;16.394;2023-02-13T13:54:32;18.00;;;8.37;;
3991;SDS011;2010;48.194;16.394;2023-02-13T13:57:08;10.67;;;7.47;;
3991;SDS011;2010;48.194;16.394;2023-02-13T14:06:00;14.50;;;8.13;;
3991;SDS011;2010;48.194;16.394;2023-02-13T14:18:20;10.00;;;5.90;;
3991;SDS011;2010;48.194;16.394;2023-02-13T14:20:58;6.67;;;5.13;;
3991;SDS011;2010;48.194;16.394;2023-02-13T14:23:36;9.33;;;5.33;;
3991;SDS011;2010;48.194;16.394;2023-02-13T14:26:35;7.43;;;5.90;;
3991;SDS011;2010;48.194;16.394;2023-02-13T14:29:18;6.20;;;5.00;;
3991;SDS011;2010;48.194;16.394;2023-02-13T14:31:54;8.20;;;5.53;;
3991;SDS011;2010;48.194;16.394;2023-02-13T14:34:32;4.50;;;4.10;;
3991;SDS011;2010;48.194;16.394;2023-02-13T14:43:13;7.90;;;7.10;;
3991;SDS011;2010;48.194;16.394;2023-02-13T14:46:13;12.40;;;8.37;;
3991;SDS011;2010;48.194;16.394;2023-02-13T14:49:16;11.73;;;7.50;;
3991;SDS011;2010;48.194;16.394;2023-02-13T14:51:50;12.50;;;5.57;;
3991;SDS011;2010;48.194;16.394;2023-02-13T14:54:25;4.83;;;4.40;;
3991;SDS011;2010;48.194;16.394;2023-02-13T14:56:59;9.80;;;6.20;;
3991;SDS011;2010;48.194;16.394;2023-02-13T14:59:49;9.40;;;5.97;;
3991;SDS011;2010;48.194;16.394;2023-02-13T15:02:21;8.60;;;5.80;;
3991;SDS011;2010;48.194;16.394;2023-02-13T15:04:58;12.00;;;6.77;;
3991;SDS011;2010;48.194;16.394;2023-02-13T15:07:31;5.10;;;4.53;;
3991;SDS011;2010;48.194;16.394;2023-02-13T15:10:06;12.23;;;6.90;;
3991;SDS011;2010;48.194;16.394;2023-02-13T15:12:57;4.90;;;4.37;;
3991;SDS011;2010;48.194;16.394;2023-02-13T15:15:44;5.43;;;4.77;;
3991;SDS011;2010;48.194;16.394;2023-02-13T15:18:18;9.40;;;4.40;;
3991;SDS011;2010;48.194;16.394;2023-02-13T15:20:51;6.83;;;5.73;;
3991;SDS011;2010;48.194;16.394;2023-02-13T15:23:22;5.20;;;4.80;;
3991;SDS011;2010;48.194;16.394;2023-02-13T15:25:58;4.80;;;4.40;;
3991;SDS011;2010;48.194;16.394;2023-02-13T15:28:36;4.87;;;4.47;;
3991;SDS011;2010;48.194;16.394;2023-02-13T15:31:22;7.07;;;5.80;;
3991;SDS011;2010;48.194;16.394;2023-02-13T15:33:52;7.87;;;5.97;;
3991;SDS011;2010;48.194;16.394;2023-02-13T15:36:25;6.00;;;5.40;;
3991;SDS011;2010;48.194;16.394;2023-02-13T15:39:15;5.37;;;4.80;;
3991;SDS011;2010;48.194;16.394;2023-02-13T15:41:52;5.33;;;4.83;;
3991;SDS011;2010;48.194;16.394;2023-02-13T15:44:25;7.20;;;5.60;;
3991;SDS011;2010;48.194;16.394;2023-02-13T15:47:14;8.70;;;6.80;;
3991;SDS011;2010;48.194;16.394;2023-02-13T15:49:56;7.07;;;6.37;;
3991;SDS011;2010;48.194;16.394;2023-02-13T15:52:28;9.07;;;6.33;;
3991;SDS011;2010;48.194;16.394;2023-02-13T15:55:17;7.00;;;6.30;;
3991;SDS011;2010;48.194;16.394;2023-02-13T15:57:48;9.40;;;5.37;;
3991;SDS011;2010;48.194;16.394;2023-02-13T16:00:23;6.03;;;5.43;;
3991;SDS011;2010;48.194;16.394;2023-02-13T16:03:02;12.00;;;5.80;;
3991;SDS011;2010;48.194;16.394;2023-02-13T16:05:37;7.27;;;6.10;;
3991;SDS011;2010;48.194;16.394;2023-02-13T16:08:24;8.70;;;5.87;;
3991;SDS011;2010;48.194;16.394;2023-02-13T16:14:05;6.90;;;5.47;;
3991;SDS011;2010;48.194;16.394;2023-02-13T16:16:50;8.90;;;5.60;;
3991;SDS011;2010;48.194;16.394;2023-02-13T16:19:23;11.23;;;7.53;;
3991;SDS011;2010;48.194;16.394;2023-02-13T16:22:31;6.07;;;4.77;;
3991;SDS011;2010;48.194;16.394;2023-02-13T16:25:15;5.20;;;4.70;;
3991;SDS011;2010;48.194;16.394;2023-02-13T16:27:48;5.97;;;5.30;;
3991;SDS011;2010;48.194;16.394;2023-02-13T16:30:31;7.53;;;5.33;;
3991;SDS011;2010;48.194;16.394;2023-02-13T16:33:18;8.90;;;5.70;;
3991;SDS011;2010;48.194;16.394;2023-02-13T16:36:18;12.53;;;7.63;;
3991;SDS011;2010;48.194;16.394;2023-02-13T16:38:56;10.53;;;6.80;;
3991;SDS011;2010;48.194;16.394;2023-02-13T16:41:31;10.10;;;6.70;;